Time;durP1;ratioP1;P1;durP2;ratioP2;P2;SDS_P1;SDS_P2;PMS_P1;PMS_P2;Temp;Humidity;BMP_temperature;BMP_pressure;BME280_temperature;BME280_humidity;BME280_pressure;Samples;Min_cycle;Max_cycle;Signal;HPM_P1;HPM_P2
2022/05/09 00:01:56;;;;;;;4.28;2.28;;;7.50;99.90;;;;;;4993462;28;20049;-66
2022/05/09 00:04:22;;;;;;;6.60;3.25;;;7.40;99.90;;;;;;4995237;28;20061;-66
2022/05/09 00:06:48;;;;;;;2.83;2.17;;;7.40;99.90;;;;;;4994464;28;20086;-66
2022/05/09 00:09:15;;;;;;;7.38;2.58;;;7.30;99.90;;;;;;4995768;28;20735;-65
2022/05/09 00:11:42;;;;;;;12.05;3.85;;;7.40;99.90;;;;;;4995607;28;20061;-66
2022/05/09 00:14:08;;;;;;;3.40;2.10;;;7.30;99.90;;;;;;4994698;28;20049;-66
2022/05/09 00:16:34;;;;;;;7.07;2.65;;;7.30;99.90;;;;;;4995014;28;20049;-66
2022/05/09 00:19:03;;;;;;;5.13;2.78;;;7.30;99.90;;;;;;4994648;28;20054;-66
2022/05/09 00:21:31;;;;;;;2.03;1.88;;;7.20;99.90;;;;;;4994540;28;20046;-66
2022/05/09 00:23:57;;;;;;;8.80;2.30;;;7.10;99.90;;;;;;4999531;28;20038;-66
2022/05/09 00:26:24;;;;;;;5.13;2.30;;;7.10;99.90;;;;;;5015721;28;20119;-66
2022/05/09 00:28:49;;;;;;;4.40;2.30;;;7.10;99.90;;;;;;5007570;28;20060;-65
2022/05/09 00:31:15;;;;;;;7.03;2.65;;;7.10;99.90;;;;;;5015780;28;20114;-65
2022/05/09 00:33:41;;;;;;;3.85;2.40;;;7.10;99.90;;;;;;5016373;28;20045;-66
2022/05/09 00:36:06;;;;;;;4.97;2.60;;;7.10;99.90;;;;;;5015004;28;20127;-66
2022/05/09 00:38:32;;;;;;;6.35;3.13;;;7.00;99.90;;;;;;5016599;28;20045;-65
2022/05/09 00:43:41;;;;;;;6.60;3.75;;;7.00;99.90;;;;;;5015396;28;20538;-66
2022/05/09 00:46:08;;;;;;;5.88;2.55;;;7.00;99.90;;;;;;5016842;28;20049;-66
2022/05/09 00:48:35;;;;;;;3.30;3.00;;;7.00;99.90;;;;;;5016264;28;20186;-65
2022/05/09 00:51:01;;;;;;;3.35;2.10;;;7.00;99.90;;;;;;5016668;28;20156;-65
2022/05/09 00:53:30;;;;;;;3.95;2.30;;;7.00;99.90;;;;;;5014829;28;20742;-66
2022/05/09 00:56:00;;;;;;;4.93;3.00;;;7.00;99.90;;;;;;5015449;28;20095;-66
2022/05/09 00:58:35;;;;;;;11.00;3.30;;;7.00;99.90;;;;;;5014541;28;20053;-66
2022/05/09 01:01:03;;;;;;;3.75;3.28;;;7.00;99.90;;;;;;5015665;28;20782;-65
2022/05/09 01:03:46;;;;;;;3.88;2.47;;;6.90;99.90;;;;;;5015785;28;20496;-66
2022/05/09 01:06:12;;;;;;;6.70;2.58;;;6.90;99.90;;;;;;5013759;28;20658;-66
2022/05/09 01:08:37;;;;;;;11.52;4.30;;;6.90;99.90;;;;;;5015623;28;20118;-66
2022/05/09 01:11:10;;;;;;;5.35;2.70;;;6.90;99.90;;;;;;5015735;28;20075;-65
2022/05/09 01:13:39;;;;;;;5.57;2.28;;;6.90;99.90;;;;;;5014968;28;20107;-65
2022/05/09 01:16:05;;;;;;;7.90;3.60;;;6.80;99.90;;;;;;5014170;28;20136;-66
2022/05/09 01:18:31;;;;;;;4.43;3.28;;;6.80;99.90;;;;;;5016099;28;20049;-66
2022/05/09 01:20:56;;;;;;;5.00;3.03;;;6.70;99.90;;;;;;5014999;28;20045;-66
2022/05/09 01:23:22;;;;;;;4.15;2.45;;;6.70;99.90;;;;;;5015874;28;20045;-66
2022/05/09 01:25:48;;;;;;;5.82;3.17;;;6.70;99.90;;;;;;5016029;28;20085;-66
2022/05/09 01:28:14;;;;;;;5.15;2.70;;;6.60;99.90;;;;;;5015583;28;20196;-66
2022/05/09 01:30:57;;;;;;;4.80;2.80;;;6.80;99.90;;;;;;5011508;28;20046;-66
2022/05/09 01:33:38;;;;;;;4.07;2.28;;;6.50;99.90;;;;;;5014998;28;20255;-65
2022/05/09 01:36:12;;;;;;;3.80;2.83;;;6.60;99.90;;;;;;5018332;28;20533;-66
2022/05/09 01:38:52;;;;;;;6.38;2.83;;;6.60;99.90;;;;;;5019755;28;20041;-65
2022/05/09 01:41:18;;;;;;;7.88;3.80;;;6.70;99.90;;;;;;5018230;28;20063;-66
2022/05/09 01:43:48;;;;;;;6.05;2.92;;;6.70;99.90;;;;;;5019193;28;20045;-66
2022/05/09 01:46:20;;;;;;;8.65;3.15;;;6.70;99.90;;;;;;5019986;28;20064;-65
2022/05/09 01:51:32;;;;;;;6.32;2.47;;;6.80;99.90;;;;;;5019323;28;20390;-65
2022/05/09 01:53:58;;;;;;;3.38;2.50;;;6.80;99.90;;;;;;5018116;28;20053;-66
2022/05/09 01:56:29;;;;;;;5.78;3.85;;;6.70;99.90;;;;;;5013305;28;20050;-66
2022/05/09 01:58:56;;;;;;;4.35;2.97;;;6.80;99.90;;;;;;5018121;28;20229;-66
2022/05/09 02:01:23;;;;;;;5.25;3.67;;;6.80;99.90;;;;;;5019024;28;20053;-66
2022/05/09 02:03:50;;;;;;;6.60;3.08;;;6.70;99.90;;;;;;5019226;28;20060;-65
2022/05/09 02:06:17;;;;;;;4.18;3.28;;;6.70;99.90;;;;;;5018012;28;20058;-66
2022/05/09 02:08:43;;;;;;;6.45;3.20;;;6.70;99.90;;;;;;5019253;28;20260;-66
2022/05/09 02:11:09;;;;;;;11.63;3.67;;;6.70;99.90;;;;;;5017521;28;20049;-66
2022/05/09 02:13:36;;;;;;;4.30;2.78;;;6.70;99.90;;;;;;5011793;28;20046;-65
2022/05/09 02:16:03;;;;;;;3.92;3.03;;;6.60;99.90;;;;;;5019228;28;20684;-65
2022/05/09 02:18:28;;;;;;;6.00;3.40;;;6.60;99.90;;;;;;5014389;28;20060;-65
2022/05/09 02:20:54;;;;;;;6.35;3.70;;;6.50;99.90;;;;;;5017436;28;20042;-66
2022/05/09 02:23:20;;;;;;;7.43;3.22;;;6.50;99.90;;;;;;5018394;28;20671;-66
2022/05/09 02:25:46;;;;;;;5.13;3.40;;;6.50;99.90;;;;;;5018653;28;20041;-65
2022/05/09 02:28:14;;;;;;;3.03;2.47;;;6.50;99.90;;;;;;5016503;28;20413;-66
2022/05/09 02:30:40;;;;;;;3.17;2.50;;;6.50;99.90;;;;;;5018656;28;20041;-66
2022/05/09 02:33:07;;;;;;;3.35;2.20;;;6.50;99.90;;;;;;5018078;28;20091;-65
2022/05/09 02:35:34;;;;;;;4.50;2.40;;;6.50;99.90;;;;;;5018275;28;20508;-65
2022/05/09 02:38:00;;;;;;;5.97;2.38;;;6.50;99.90;;;;;;5016969;28;20128;-66
2022/05/09 02:40:26;;;;;;;3.70;2.30;;;6.50;99.90;;;;;;5017662;28;20773;-65
2022/05/09 02:42:53;;;;;;;7.60;2.97;;;6.50;99.90;;;;;;5016897;28;20041;-66
2022/05/09 02:45:19;;;;;;;4.07;2.67;;;6.40;99.90;;;;;;5018821;28;20125;-66
2022/05/09 02:47:45;;;;;;;5.55;3.13;;;6.40;99.90;;;;;;5017171;28;20045;-66
2022/05/09 02:50:12;;;;;;;3.20;2.35;;;6.40;99.90;;;;;;5017282;28;20163;-66
2022/05/09 02:52:38;;;;;;;6.70;3.00;;;6.40;99.90;;;;;;5018395;28;20682;-66
2022/05/09 02:55:08;;;;;;;7.25;3.22;;;5.60;99.90;;;;;;5017625;28;20041;-66
2022/05/09 02:57:35;;;;;;;4.43;2.13;;;6.40;99.90;;;;;;5016918;28;20057;-66
2022/05/09 03:00:03;;;;;;;4.25;2.28;;;6.30;99.90;;;;;;5018399;28;20834;-66
2022/05/09 03:02:28;;;;;;;5.07;2.78;;;6.20;99.90;;;;;;5017768;28;20045;-66
2022/05/09 03:04:54;;;;;;;3.80;2.70;;;6.20;99.90;;;;;;5017276;28;20056;-66
2022/05/09 03:07:20;;;;;;;4.07;2.28;;;6.20;99.90;;;;;;5017968;28;20068;-66
2022/05/09 03:09:48;;;;;;;6.28;2.78;;;6.10;99.90;;;;;;5018250;28;20783;-66
2022/05/09 03:12:14;;;;;;;7.18;2.72;;;6.10;99.90;;;;;;5018091;28;20511;-66
2022/05/09 03:14:40;;;;;;;4.15;2.80;;;6.00;99.90;;;;;;5017604;28;20092;-66
2022/05/09 03:17:08;;;;;;;5.00;3.13;;;6.10;99.90;;;;;;5016916;28;20540;-66
2022/05/09 03:19:34;;;;;;;6.85;2.40;;;6.10;99.90;;;;;;5018141;28;20049;-66
2022/05/09 03:22:00;;;;;;;4.97;3.00;;;6.10;99.90;;;;;;5017735;28;20557;-66
2022/05/09 03:24:26;;;;;;;3.90;2.50;;;6.10;99.90;;;;;;5018199;28;20049;-66
2022/05/09 03:26:52;;;;;;;5.72;2.83;;;6.10;99.90;;;;;;5016423;28;20924;-66
2022/05/09 03:29:19;;;;;;;4.07;2.90;;;6.10;99.90;;;;;;5017287;28;20038;-66
2022/05/09 03:31:46;;;;;;;8.38;3.70;;;6.00;99.90;;;;;;5017634;28;20068;-66
2022/05/09 03:34:12;;;;;;;4.60;2.95;;;6.00;99.90;;;;;;5017787;28;20046;-66
2022/05/09 03:36:38;;;;;;;6.93;2.72;;;6.00;99.90;;;;;;5015722;28;20549;-66
2022/05/09 03:39:04;;;;;;;7.85;3.55;;;6.00;99.90;;;;;;5017135;28;20045;-66
2022/05/09 03:41:29;;;;;;;13.63;3.15;;;6.10;99.90;;;;;;5017425;28;20037;-66
2022/05/09 03:43:55;;;;;;;4.10;2.75;;;6.10;99.90;;;;;;5015770;28;20166;-66
2022/05/09 03:46:21;;;;;;;4.65;2.35;;;6.10;99.90;;;;;;5017514;28;20048;-66
2022/05/09 03:48:46;;;;;;;3.95;2.90;;;6.20;99.90;;;;;;5015850;28;20160;-66
2022/05/09 03:51:12;;;;;;;3.58;2.95;;;6.20;99.90;;;;;;5015097;28;20041;-66
2022/05/09 03:53:37;;;;;;;5.80;4.35;;;6.20;99.90;;;;;;5013627;28;20197;-66
2022/05/09 03:56:03;;;;;;;7.60;3.17;;;6.20;99.90;;;;;;5013172;28;20060;-66
2022/05/09 03:58:30;;;;;;;4.45;2.58;;;6.10;99.90;;;;;;5011813;28;20045;-66
2022/05/09 04:00:55;;;;;;;6.38;3.33;;;6.10;99.90;;;;;;5014626;28;20065;-66
2022/05/09 04:03:21;;;;;;;6.05;3.40;;;6.10;99.90;;;;;;5014420;28;20439;-66
2022/05/09 04:05:47;;;;;;;7.32;3.45;;;6.20;99.90;;;;;;5012812;28;20199;-66
2022/05/09 04:08:16;;;;;;;5.00;3.45;;;6.20;99.90;;;;;;5012281;28;20065;-66
2022/05/09 04:10:43;;;;;;;9.05;3.58;;;6.20;99.90;;;;;;5013907;28;20045;-66
2022/05/09 04:13:09;;;;;;;7.15;3.85;;;6.30;99.90;;;;;;5012499;28;20053;-66
2022/05/09 04:18:21;;;;;;;4.97;2.17;;;6.30;99.90;;;;;;5013664;28;20053;-66
2022/05/09 04:20:50;;;;;;;4.00;2.97;;;6.40;99.90;;;;;;5014585;28;20049;-66
2022/05/09 04:23:16;;;;;;;4.63;2.97;;;6.40;99.90;;;;;;5013025;28;20085;-66
2022/05/09 04:25:42;;;;;;;4.18;2.60;;;6.40;99.90;;;;;;5013551;28;21017;-66
2022/05/09 04:28:08;;;;;;;6.32;2.72;;;6.50;99.90;;;;;;5014084;28;20175;-66
2022/05/09 04:30:36;;;;;;;4.28;2.65;;;6.50;99.90;;;;;;5012910;28;20045;-66
2022/05/09 04:33:04;;;;;;;5.35;3.28;;;6.60;99.90;;;;;;5014138;28;20400;-67
2022/05/09 04:35:30;;;;;;;5.20;3.13;;;6.60;99.90;;;;;;5013283;28;20057;-66
2022/05/09 04:37:56;;;;;;;3.13;2.67;;;6.60;99.90;;;;;;5012357;28;20064;-66
2022/05/09 04:40:26;;;;;;;7.88;4.18;;;6.70;99.90;;;;;;5013134;28;20041;-66
2022/05/09 04:42:52;;;;;;;5.20;2.92;;;6.70;99.90;;;;;;5012135;28;20103;-66
2022/05/09 04:45:18;;;;;;;5.05;4.45;;;6.70;99.90;;;;;;5013038;28;20618;-66
2022/05/09 04:47:45;;;;;;;8.82;3.53;;;6.70;99.90;;;;;;5011816;28;20103;-66
2022/05/09 04:50:12;;;;;;;6.82;4.00;;;6.70;99.90;;;;;;5013999;28;20483;-66
2022/05/09 04:52:38;;;;;;;8.70;4.55;;;6.70;99.90;;;;;;5013452;28;20497;-66
2022/05/09 04:55:04;;;;;;;13.95;4.55;;;6.70;99.90;;;;;;5013473;28;20034;-66
2022/05/09 04:57:30;;;;;;;8.10;3.88;;;6.80;99.90;;;;;;4993681;28;20826;-66
2022/05/09 04:59:57;;;;;;;7.82;4.43;;;6.90;99.90;;;;;;4994747;28;20050;-66
2022/05/09 05:02:22;;;;;;;6.10;4.05;;;6.90;99.90;;;;;;4992919;28;20046;-66
2022/05/09 05:04:48;;;;;;;9.32;4.20;;;7.00;99.90;;;;;;4995385;28;20115;-66
2022/05/09 05:07:13;;;;;;;8.70;4.32;;;7.10;99.90;;;;;;5013939;28;20096;-66
2022/05/09 05:09:39;;;;;;;7.55;4.18;;;7.10;99.90;;;;;;5014366;28;20124;-66
2022/05/09 05:12:05;;;;;;;8.10;4.15;;;7.20;99.90;;;;;;5014966;28;20144;-66
2022/05/09 05:14:31;;;;;;;4.85;3.63;;;7.30;99.90;;;;;;5013553;28;20169;-67
2022/05/09 05:16:59;;;;;;;8.40;3.72;;;7.30;99.90;;;;;;5015122;28;20499;-67
2022/05/09 05:19:27;;;;;;;6.70;4.10;;;7.40;99.90;;;;;;5015273;28;20050;-66
2022/05/09 05:21:52;;;;;;;8.57;3.97;;;7.40;99.90;;;;;;5013411;28;20085;-66
2022/05/09 05:24:18;;;;;;;10.35;4.35;;;7.50;99.90;;;;;;5013653;28;20639;-66
2022/05/09 05:26:43;;;;;;;8.45;4.53;;;7.60;99.90;;;;;;5014018;28;20813;-66
2022/05/09 05:29:09;;;;;;;13.68;4.38;;;7.60;99.90;;;;;;5013945;28;20075;-66
2022/05/09 05:31:35;;;;;;;6.00;3.95;;;7.70;99.90;;;;;;5014454;28;20054;-67
2022/05/09 05:34:00;;;;;;;12.32;4.03;;;7.70;99.90;;;;;;5014222;28;20110;-66
2022/05/09 05:36:26;;;;;;;7.45;3.72;;;7.80;99.90;;;;;;5010504;28;20054;-66
2022/05/09 05:38:52;;;;;;;8.73;5.50;;;7.80;99.90;;;;;;5013408;28;20595;-66
2022/05/09 05:41:19;;;;;;;8.80;4.43;;;7.90;99.90;;;;;;5011784;28;20077;-66
2022/05/09 05:43:44;;;;;;;7.15;3.65;;;8.00;99.90;;;;;;5010990;28;20049;-67
2022/05/09 05:46:11;;;;;;;10.93;4.10;;;8.10;99.90;;;;;;5011455;28;20068;-66
2022/05/09 05:48:37;;;;;;;8.32;4.82;;;8.20;99.90;;;;;;5010440;28;20064;-67
2022/05/09 05:51:02;;;;;;;7.43;3.90;;;8.30;99.90;;;;;;5011335;28;20042;-67
2022/05/09 05:53:28;;;;;;;6.97;4.47;;;8.40;99.90;;;;;;4994886;28;20061;-67
2022/05/09 05:55:54;;;;;;;9.30;5.35;;;8.50;99.90;;;;;;5010316;28;20080;-67
2022/05/09 05:58:20;;;;;;;8.15;4.72;;;8.50;99.90;;;;;;5010852;28;20053;-66
2022/05/09 06:00:45;;;;;;;8.63;4.32;;;8.50;99.90;;;;;;5003274;28;20041;-67
2022/05/09 06:03:11;;;;;;;10.77;4.53;;;8.60;99.90;;;;;;5005272;28;20053;-66
2022/05/09 06:05:36;;;;;;;5.55;3.70;;;8.80;99.90;;;;;;5009169;28;20041;-67
2022/05/09 06:08:02;;;;;;;11.00;4.47;;;8.90;99.90;;;;;;5012781;28;20057;-67
2022/05/09 06:10:30;;;;;;;9.43;4.60;;;9.10;99.90;;;;;;5012708;28;20148;-67
2022/05/09 06:12:56;;;;;;;7.85;4.55;;;9.20;99.90;;;;;;5001205;28;20159;-66
2022/05/09 06:15:34;;;;;;;6.25;3.35;;;9.40;99.90;;;;;;4997796;28;20062;-64
2022/05/09 06:18:05;;;;;;;8.32;4.15;;;9.50;99.90;;;;;;4993017;28;20099;-67
2022/05/09 06:20:34;;;;;;;8.40;5.15;;;9.70;99.90;;;;;;4993412;28;20120;-67
2022/05/09 06:23:01;;;;;;;8.57;4.15;;;9.90;99.90;;;;;;5004148;28;20541;-67
2022/05/09 06:25:28;;;;;;;9.93;4.88;;;10.10;99.90;;;;;;5000243;28;20115;-67
2022/05/09 06:27:54;;;;;;;7.68;5.32;;;10.30;99.90;;;;;;4999565;28;20121;-67
2022/05/09 06:30:22;;;;;;;9.65;5.68;;;10.40;99.90;;;;;;5000122;28;20140;-67
2022/05/09 06:32:48;;;;;;;8.43;5.10;;;10.70;99.90;;;;;;5005985;28;20053;-67
2022/05/09 06:35:23;;;;;;;11.20;4.95;;;11.10;99.90;;;;;;5004098;28;20064;-67
2022/05/09 06:37:50;;;;;;;7.68;3.85;;;11.50;99.90;;;;;;4996871;28;20663;-67
2022/05/09 06:40:17;;;;;;;9.40;5.22;;;12.20;99.90;;;;;;5000574;28;20041;-67
2022/05/09 06:42:43;;;;;;;12.38;3.97;;;13.60;99.90;;;;;;5014949;28;20053;-67
2022/05/09 06:45:10;;;;;;;6.35;3.90;;;15.00;99.90;;;;;;5001790;28;20509;-67
2022/05/09 06:47:43;;;;;;;10.35;4.38;;;16.30;99.90;;;;;;5004761;28;20077;-67
2022/05/09 06:50:08;;;;;;;7.82;4.28;;;17.30;99.90;;;;;;4996329;28;20046;-68
2022/05/09 06:52:36;;;;;;;8.20;3.83;;;18.20;99.90;;;;;;4995814;28;20120;-68
2022/05/09 06:55:02;;;;;;;6.82;3.63;;;19.10;99.90;;;;;;4652593;28;9999951;-67
2022/05/09 06:57:28;;;;;;;9.07;3.75;;;19.60;99.90;;;;;;5004414;28;20057;-67
2022/05/09 06:59:53;;;;;;;8.57;4.15;;;20.20;99.90;;;;;;5003911;28;20045;-68
2022/05/09 07:02:19;;;;;;;7.10;4.22;;;20.80;99.90;;;;;;4995672;28;20049;-67
2022/05/09 07:04:44;;;;;;;7.28;4.00;;;20.90;98.70;;;;;;5000189;28;20065;-67
2022/05/09 07:07:10;;;;;;;8.13;3.40;;;21.30;98.00;;;;;;5001159;28;20045;-67
2022/05/09 07:09:36;;;;;;;9.13;5.28;;;21.70;97.60;;;;;;4997280;28;20965;-68
2022/05/09 07:12:01;;;;;;;4.38;3.53;;;21.80;96.90;;;;;;5006418;28;20765;-68
2022/05/09 07:14:27;;;;;;;5.47;3.50;;;22.00;96.10;;;;;;4993063;28;20053;-68
2022/05/09 07:16:53;;;;;;;6.30;3.30;;;22.30;94.90;;;;;;4308038;28;10000775;-68
2022/05/09 07:19:18;;;;;;;9.27;3.67;;;22.80;94.70;;;;;;5002325;28;20046;-68
2022/05/09 07:21:44;;;;;;;5.60;3.47;;;22.90;93.70;;;;;;5000216;28;20037;-68
2022/05/09 07:24:10;;;;;;;7.30;3.63;;;23.10;93.20;;;;;;4994428;28;20037;-68
2022/05/09 07:26:39;;;;;;;8.18;3.35;;;23.10;92.60;;;;;;5000942;28;20148;-67
2022/05/09 07:29:05;;;;;;;7.75;3.60;;;23.40;92.10;;;;;;4995287;28;20049;-68
2022/05/09 07:31:31;;;;;;;8.57;3.88;;;23.70;91.40;;;;;;4998107;28;20128;-67
2022/05/09 07:33:56;;;;;;;8.75;3.33;;;23.80;90.40;;;;;;4995633;28;20056;-68
2022/05/09 07:36:22;;;;;;;6.50;2.95;;;24.30;89.50;;;;;;4993718;28;20053;-68
2022/05/09 07:38:47;;;;;;;10.30;3.42;;;25.30;88.50;;;;;;4995219;28;20079;-68
2022/05/09 07:41:13;;;;;;;5.32;3.13;;;24.50;86.70;;;;;;4996334;28;20044;-68
2022/05/09 07:43:39;;;;;;;7.20;3.35;;;24.30;85.00;;;;;;4994345;28;20073;-68
2022/05/09 07:46:05;;;;;;;7.57;3.67;;;24.30;84.40;;;;;;5003259;28;20042;-68
2022/05/09 07:48:30;;;;;;;9.20;3.40;;;24.20;83.60;;;;;;5000038;28;20042;-68
2022/05/09 07:50:58;;;;;;;6.65;3.47;;;24.30;82.50;;;;;;5002596;28;20037;-68
2022/05/09 07:53:30;;;;;;;6.18;3.17;;;24.70;82.00;;;;;;4994091;28;20085;-68
2022/05/09 07:55:56;;;;;;;6.50;3.63;;;25.20;79.40;;;;;;4990684;28;20064;-68
2022/05/09 07:58:22;;;;;;;6.38;3.92;;;24.70;80.10;;;;;;4993002;28;20925;-68
2022/05/09 08:00:48;;;;;;;6.25;3.88;;;24.90;79.30;;;;;;4997947;28;20050;-68
2022/05/09 08:03:20;;;;;;;6.95;3.47;;;24.70;78.10;;;;;;4993115;28;20482;-68
2022/05/09 08:05:46;;;;;;;6.18;4.35;;;24.80;74.40;;;;;;4993059;28;20059;-68
2022/05/09 08:08:12;;;;;;;8.48;3.47;;;25.10;77.00;;;;;;5003887;28;20053;-68
2022/05/09 08:10:39;;;;;;;6.47;3.90;;;25.10;75.50;;;;;;4995708;28;20085;-68
2022/05/09 08:13:06;;;;;;;3.95;3.08;;;24.80;75.00;;;;;;4995045;28;20046;-68
2022/05/09 08:15:34;;;;;;;5.60;3.67;;;25.30;75.10;;;;;;4999514;28;20052;-68
2022/05/09 08:18:01;;;;;;;8.98;3.10;;;24.90;73.80;;;;;;4996376;28;20045;-68
2022/05/09 08:20:28;;;;;;;7.22;3.22;;;24.90;74.10;;;;;;4651069;28;10000256;-68
2022/05/09 08:23:06;;;;;;;10.52;4.00;;;25.00;73.10;;;;;;4998041;28;20536;-66
2022/05/09 08:25:34;;;;;;;7.40;4.10;;;25.40;69.40;;;;;;4995907;28;20049;-66
2022/05/09 08:28:01;;;;;;;4.90;3.72;;;25.40;70.90;;;;;;5006215;28;20049;-66
2022/05/09 08:30:32;;;;;;;6.85;4.25;;;25.30;71.10;;;;;;5010701;28;20068;-66
2022/05/09 08:32:59;;;;;;;7.80;3.72;;;25.20;70.90;;;;;;5010884;28;20049;-66
2022/05/09 08:35:25;;;;;;;8.50;3.58;;;25.60;70.00;;;;;;4995438;28;20054;-66
2022/05/09 08:37:50;;;;;;;8.18;3.60;;;25.90;69.30;;;;;;4989404;28;20064;-66
2022/05/09 08:40:20;;;;;;;5.85;3.15;;;25.10;67.20;;;;;;4997448;28;20086;-66
2022/05/09 08:42:54;;;;;;;6.38;3.08;;;25.10;68.40;;;;;;5010124;28;20099;-66
2022/05/09 08:45:36;;;;;;;8.23;3.72;;;24.90;66.20;;;;;;5008597;28;20055;-66
2022/05/09 08:48:13;;;;;;;7.00;3.87;;;25.30;65.60;;;;;;4995850;28;20927;-67
2022/05/09 08:50:58;;;;;;;5.70;3.13;;;25.10;66.10;;;;;;4995111;28;20049;-66
2022/05/09 08:53:26;;;;;;;4.47;3.42;;;25.00;68.20;;;;;;4998682;28;20505;-66
2022/05/09 08:55:53;;;;;;;7.88;4.10;;;25.20;68.00;;;;;;4998853;28;20131;-66
2022/05/09 08:58:25;;;;;;;7.93;3.70;;;25.10;67.60;;;;;;4995717;28;20046;-66
2022/05/09 09:00:52;;;;;;;5.90;3.40;;;25.60;67.20;;;;;;5001095;28;20042;-66
2022/05/09 09:03:38;;;;;;;7.78;3.03;;;25.80;66.90;;;;;;5002506;28;20642;-66
2022/05/09 09:06:36;;;;;;;7.47;3.53;;;25.30;59.50;;;;;;4997430;28;20042;-66
2022/05/09 09:09:43;;;;;;;4.85;2.80;;;25.60;59.60;;;;;;4998957;28;20069;-66
2022/05/09 09:12:21;;;;;;;5.10;3.28;;;25.90;62.30;;;;;;4997771;28;20068;-66
2022/05/09 09:15:06;;;;;;;4.68;3.50;;;26.60;60.80;;;;;;4995200;28;20049;-66
2022/05/09 09:17:44;;;;;;;5.22;3.38;;;26.50;60.80;;;;;;4994593;28;20053;-66
2022/05/09 09:20:18;;;;;;;4.10;3.67;;;26.40;59.70;;;;;;4994394;28;20080;-66
2022/05/09 09:23:22;;;;;;;8.95;3.97;;;26.00;62.60;;;;;;5006416;28;20054;-66
2022/05/09 09:26:32;;;;;;;5.28;3.60;;;25.30;59.00;;;;;;4994105;28;20054;-66
2022/05/09 09:29:13;;;;;;;6.47;2.97;;;25.20;59.10;;;;;;4997024;28;20760;-66
2022/05/09 09:31:45;;;;;;;5.18;2.38;;;24.90;57.60;;;;;;4997489;28;20058;-67
2022/05/09 09:34:16;;;;;;;6.65;3.08;;;24.60;60.80;;;;;;5012072;28;20045;-66
2022/05/09 09:36:48;;;;;;;5.25;2.88;;;25.20;58.40;;;;;;5008976;28;20842;-66
2022/05/09 09:39:19;;;;;;;;;;;25.50;58.90;;;;;;5011126;28;20068;-67
2022/05/09 09:41:45;;;;;;;8.93;3.15;;;25.30;57.40;;;;;;5010528;28;19925;-66
2022/05/09 09:44:14;;;;;;;6.25;3.22;;;25.50;60.60;;;;;;5007815;28;20197;-66
2022/05/09 09:47:05;;;;;;;3.95;3.03;;;26.00;59.10;;;;;;4997241;28;20054;-67
2022/05/09 09:49:32;;;;;;;7.35;2.75;;;26.50;56.00;;;;;;4997042;28;20115;-67
2022/05/09 09:51:58;;;;;;;3.50;2.33;;;26.20;58.10;;;;;;4989743;28;20543;-67
2022/05/09 09:54:31;;;;;;;5.55;3.28;;;26.50;57.90;;;;;;4990418;28;20049;-66
2022/05/09 09:57:35;;;;;;;8.13;4.97;;;25.70;56.30;;;;;;4997427;28;20042;-67
2022/05/09 10:00:21;;;;;;;4.07;1.95;;;25.00;56.20;;;;;;5002122;28;20072;-65
2022/05/09 10:02:48;;;;;;;4.97;2.80;;;25.40;55.50;;;;;;4983364;28;20668;-68
2022/05/09 10:05:17;;;;;;;4.22;2.55;;;25.90;56.50;;;;;;4999705;28;20061;-68
2022/05/09 10:07:44;;;;;;;3.72;2.08;;;26.40;55.60;;;;;;5013294;28;20914;-67
2022/05/09 10:10:16;;;;;;;5.68;2.00;;;26.50;55.10;;;;;;5011952;28;20057;-68
2022/05/09 10:12:49;;;;;;;7.15;2.67;;;26.70;54.60;;;;;;5014848;28;20464;-67
2022/05/09 10:15:25;;;;;;;5.93;2.13;;;26.70;54.60;;;;;;5015620;28;20059;-67
2022/05/09 10:17:51;;;;;;;4.55;2.15;;;26.70;51.50;;;;;;5013193;28;20041;-68
2022/05/09 10:20:37;;;;;;;6.32;2.90;;;26.90;54.00;;;;;;4995397;28;20053;-67
2022/05/09 10:26:19;;;;;;;5.32;2.10;;;27.50;52.90;;;;;;5017034;28;20049;-68
2022/05/09 10:28:57;;;;;;;3.38;2.30;;;27.60;53.60;;;;;;5011894;28;20285;-67
2022/05/09 10:31:32;;;;;;;4.93;2.08;;;27.70;52.30;;;;;;5015913;28;20080;-67
2022/05/09 10:34:03;;;;;;;4.28;2.40;;;27.70;53.00;;;;;;5016519;28;20045;-67
2022/05/09 10:36:44;;;;;;;3.95;2.42;;;27.80;53.20;;;;;;5017313;28;20049;-67
2022/05/09 10:39:19;;;;;;;2.95;2.17;;;27.80;51.60;;;;;;5016797;28;20057;-67
2022/05/09 10:41:59;;;;;;;7.45;2.42;;;27.50;52.80;;;;;;5018031;28;20107;-67
2022/05/09 10:44:34;;;;;;;6.15;2.10;;;27.80;51.80;;;;;;5017330;28;20128;-67
2022/05/09 10:47:08;;;;;;;3.35;1.60;;;27.60;52.60;;;;;;5017829;28;20041;-67
2022/05/09 10:49:48;;;;;;;4.35;1.92;;;27.60;52.40;;;;;;5015758;28;20054;-67
2022/05/09 10:52:28;;;;;;;5.00;1.60;;;27.40;51.40;;;;;;5017287;28;20045;-67
2022/05/09 10:55:01;;;;;;;3.28;2.30;;;27.20;50.40;;;;;;5015715;28;20163;-67
2022/05/09 10:57:45;;;;;;;2.70;2.17;;;27.00;50.50;;;;;;5016251;28;20092;-66
2022/05/09 11:00:22;;;;;;;23.52;3.55;;;26.70;50.30;;;;;;5016813;28;20052;-67
2022/05/09 11:03:08;;;;;;;7.32;2.67;;;26.60;51.60;;;;;;5015971;28;20100;-67
2022/05/09 11:05:56;;;;;;;4.68;2.40;;;26.50;50.00;;;;;;5006624;28;20516;-66
2022/05/09 11:08:39;;;;;;;4.13;2.15;;;26.30;50.60;;;;;;4996130;28;20077;-65
2022/05/09 11:11:15;;;;;;;8.43;2.25;;;26.10;50.50;;;;;;4997964;28;20045;-65
2022/05/09 11:14:09;;;;;;;3.85;2.47;;;25.90;50.10;;;;;;4995991;28;20124;-65
2022/05/09 11:16:49;;;;;;;5.72;2.70;;;26.00;50.80;;;;;;4997046;28;20057;-65
2022/05/09 11:19:52;;;;;;;6.53;3.08;;;26.10;51.40;;;;;;4996122;28;20057;-65
2022/05/09 11:22:29;;;;;;;3.03;2.45;;;26.00;50.80;;;;;;4982927;28;20104;-65
2022/05/09 11:25:32;;;;;;;7.72;2.80;;;25.80;50.60;;;;;;4997977;28;20053;-65
2022/05/09 11:28:03;;;;;;;5.43;2.30;;;25.60;50.60;;;;;;4995290;28;20131;-65
2022/05/09 11:31:05;;;;;;;8.15;3.03;;;25.40;50.60;;;;;;4997341;28;20157;-65
2022/05/09 11:33:58;;;;;;;6.28;2.75;;;25.40;51.10;;;;;;5011277;28;20115;-65
2022/05/09 11:36:32;;;;;;;;;;;25.40;51.60;;;;;;5016907;28;20065;-64
2022/05/09 11:39:22;;;;;;;6.20;2.65;;;25.40;51.00;;;;;;5017307;28;19921;-64
2022/05/09 11:43:27;;;;;;;7.80;2.40;;;25.20;50.80;;;;;;5015564;28;20152;-65
2022/05/09 11:45:12;;;;;;;6.57;3.33;;;25.30;51.10;;;;;;5015153;28;20810;-65
2022/05/09 11:47:48;;;;;;;5.72;2.30;;;25.20;51.80;;;;;;5015287;28;20058;-65
2022/05/09 11:50:30;;;;;;;5.10;2.45;;;25.30;51.90;;;;;;5015770;28;20413;-65
2022/05/09 11:52:59;;;;;;;6.47;3.22;;;25.40;51.20;;;;;;5017151;28;20045;-65
2022/05/09 11:55:26;;;;;;;6.60;2.67;;;25.30;51.50;;;;;;5016743;28;20041;-65
2022/05/09 11:58:03;;;;;;;4.07;3.47;;;25.20;51.30;;;;;;5017011;28;20055;-65
2022/05/09 12:00:38;;;;;;;9.07;2.72;;;25.20;50.60;;;;;;5015539;28;20806;-65
2022/05/09 12:03:13;;;;;;;7.38;2.80;;;25.20;51.00;;;;;;5016329;28;20050;-65
2022/05/09 12:05:39;;;;;;;4.30;2.58;;;25.30;51.70;;;;;;5016758;28;20045;-65
2022/05/09 12:08:17;;;;;;;4.72;2.05;;;25.30;51.50;;;;;;5017102;28;20065;-65
2022/05/09 12:10:46;;;;;;;4.78;2.13;;;25.40;51.60;;;;;;5016702;28;20049;-65
2022/05/09 12:13:17;;;;;;;4.68;2.15;;;25.50;51.90;;;;;;5015076;28;20160;-65
2022/05/09 12:16:00;;;;;;;6.53;2.30;;;25.50;51.80;;;;;;5014909;28;20207;-65
2022/05/09 12:18:46;;;;;;;3.13;2.13;;;25.60;51.50;;;;;;5016410;28;20175;-65
2022/05/09 12:21:18;;;;;;;4.72;2.35;;;25.60;51.50;;;;;;5016552;28;20488;-65
2022/05/09 12:23:47;;;;;;;8.57;2.20;;;25.70;52.10;;;;;;5015558;28;20606;-65
2022/05/09 12:26:33;;;;;;;4.65;1.90;;;25.70;51.70;;;;;;5016522;28;20071;-65
2022/05/09 12:29:11;;;;;;;5.15;2.35;;;25.70;51.60;;;;;;5015167;28;20050;-64
2022/05/09 12:31:44;;;;;;;4.43;2.33;;;25.70;51.80;;;;;;5014682;28;20079;-65
2022/05/09 12:34:21;;;;;;;4.93;2.45;;;25.70;52.20;;;;;;5015636;28;20115;-65
2022/05/09 12:36:47;;;;;;;3.95;2.13;;;25.60;51.20;;;;;;5015705;28;20775;-65
2022/05/09 12:39:25;;;;;;;2.80;1.90;;;25.60;51.60;;;;;;5015748;28;20049;-65
2022/05/09 12:41:55;;;;;;;4.70;2.30;;;25.60;51.90;;;;;;5017049;28;20048;-66
2022/05/09 12:44:57;;;;;;;4.72;2.15;;;25.50;51.40;;;;;;5015906;28;20056;-65
2022/05/09 12:47:29;;;;;;;3.75;1.60;;;25.70;51.70;;;;;;4993054;28;20068;-65
2022/05/09 12:50:06;;;;;;;4.97;1.90;;;25.90;52.00;;;;;;5012805;28;20140;-64
2022/05/09 12:52:35;;;;;;;5.10;2.15;;;25.80;51.30;;;;;;5013879;28;20046;-65
2022/05/09 12:57:46;;;;;;;4.47;2.58;;;26.00;51.60;;;;;;5012656;28;20053;-65
2022/05/09 13:00:15;;;;;;;8.15;2.90;;;25.90;51.20;;;;;;5014005;28;20046;-65
2022/05/09 13:02:41;;;;;;;4.53;2.63;;;25.90;51.40;;;;;;5010656;28;20042;-65
2022/05/09 13:05:07;;;;;;;4.32;2.40;;;25.80;51.30;;;;;;5015112;28;20038;-65
2022/05/09 13:07:32;;;;;;;7.68;2.00;;;25.90;51.20;;;;;;5013736;28;20046;-65
2022/05/09 13:09:58;;;;;;;8.57;2.85;;;25.80;51.00;;;;;;5000444;28;20139;-65
2022/05/09 13:12:33;;;;;;;5.00;2.20;;;25.80;51.30;;;;;;4992859;28;20054;-65
2022/05/09 13:15:11;;;;;;;7.15;2.30;;;25.80;51.50;;;;;;5004342;28;20116;-65
2022/05/09 13:17:43;;;;;;;5.07;2.83;;;26.00;52.20;;;;;;5003048;28;20056;-65
2022/05/09 13:20:16;;;;;;;5.53;2.40;;;26.00;51.60;;;;;;5001109;28;20050;-65
2022/05/09 13:22:51;;;;;;;4.78;2.60;;;25.80;51.30;;;;;;4996861;28;20967;-65